createdAt,value
2018-07-06T00:01:44.907Z,78.72
2018-07-06T00:04:58.750Z,78.53
2018-07-06T00:08:12.243Z,78.76
2018-07-06T00:11:26.005Z,79.46
2018-07-06T00:14:39.891Z,79.06
2018-07-06T00:17:53.646Z,78.94
2018-07-06T00:21:08.147Z,78.25
2018-07-06T00:24:21.972Z,78.55
2018-07-06T00:27:35.733Z,78.55
2018-07-06T00:30:49.401Z,78.45
2018-07-06T00:34:03.127Z,78.65
2018-07-06T00:37:16.668Z,78.84
2018-07-06T00:40:30.274Z,78.75
2018-07-06T00:43:44.044Z,79.36
2018-07-06T00:46:57.785Z,79.67
2018-07-06T00:50:11.376Z,79.13
2018-07-06T00:53:25.138Z,78.64
2018-07-06T00:56:38.898Z,78.95
2018-07-06T00:59:52.443Z,78.99
2018-07-06T01:03:06.303Z,78.66
2018-07-06T01:06:19.916Z,79.56
2018-07-06T01:09:33.555Z,79.68
2018-07-06T01:12:52.932Z,79.17
2018-07-06T01:16:06.599Z,79.38
2018-07-06T01:19:20.307Z,79.57
2018-07-06T01:22:33.943Z,80.19
2018-07-06T01:25:47.633Z,79.79
2018-07-06T01:29:01.248Z,79.83
2018-07-06T01:32:15.002Z,79.30
2018-07-06T01:35:28.743Z,79.38
2018-07-06T01:38:42.574Z,79.22
2018-07-06T01:41:56.369Z,80.33
2018-07-06T01:45:10.062Z,79.74
2018-07-06T01:48:23.687Z,79.71
2018-07-06T01:51:37.356Z,79.95
2018-07-06T01:54:51.203Z,80.16
2018-07-06T01:58:04.831Z,80.30
2018-07-06T02:01:18.335Z,80.52
2018-07-06T02:04:32.000Z,80.74
2018-07-06T02:07:45.732Z,81.25
2018-07-06T02:10:59.285Z,81.28
2018-07-06T02:14:14.080Z,81.23
2018-07-06T02:17:27.712Z,81.10
2018-07-06T02:20:41.413Z,80.87
2018-07-06T02:23:55.145Z,81.59
2018-07-06T02:27:08.707Z,81.42
2018-07-06T02:30:22.130Z,80.92
2018-07-06T02:33:35.852Z,80.89
2018-07-06T02:36:50.213Z,81.65
2018-07-06T02:40:03.835Z,81.33
2018-07-06T02:43:17.485Z,81.36
2018-07-06T02:46:31.132Z,81.66
2018-07-06T02:49:44.867Z,81.10
2018-07-06T02:52:58.585Z,81.22
2018-07-06T02:56:12.183Z,81.57
2018-07-06T02:59:26.723Z,81.21
2018-07-06T03:02:40.403Z,82.15
2018-07-06T03:05:54.032Z,81.78
2018-07-06T03:09:07.526Z,81.74
2018-07-06T03:12:21.264Z,83.11
2018-07-06T03:15:34.960Z,82.22
2018-07-06T03:18:48.858Z,82.92
2018-07-06T03:22:02.562Z,82.60
2018-07-06T03:25:17.055Z,81.99
2018-07-06T03:28:30.698Z,82.45
2018-07-06T03:31:44.188Z,82.41
2018-07-06T03:34:57.736Z,82.46
2018-07-06T03:38:11.352Z,82.46
2018-07-06T03:41:25.140Z,81.87
2018-07-06T03:44:38.766Z,83.26
2018-07-06T03:47:52.268Z,83.01
2018-07-06T03:51:06.242Z,82.71
2018-07-06T03:54:20.875Z,83.48
2018-07-06T03:57:35.189Z,82.75
2018-07-06T04:00:48.837Z,83.36
2018-07-06T04:04:02.405Z,82.95
2018-07-06T04:07:15.995Z,82.87
2018-07-06T04:10:29.607Z,83.49
2018-07-06T04:13:44.435Z,83.21
2018-07-06T04:16:58.034Z,83.33
2018-07-06T04:20:11.876Z,84.17
2018-07-06T04:23:25.445Z,84.04
2018-07-06T04:26:39.119Z,84.16
2018-07-06T04:29:52.919Z,83.63
2018-07-06T04:33:06.607Z,83.91
2018-07-06T04:36:21.476Z,83.69
2018-07-06T04:39:35.237Z,83.49
2018-07-06T04:42:48.788Z,84.42
2018-07-06T04:46:02.392Z,83.93
2018-07-06T04:49:16.059Z,83.72
2018-07-06T04:52:29.670Z,83.54
2018-07-06T04:55:44.307Z,83.60
2018-07-06T04:58:58.075Z,83.84
2018-07-06T05:02:11.784Z,83.78
2018-07-06T05:05:25.400Z,83.72
2018-07-06T05:08:39.149Z,84.00
2018-07-06T05:11:52.904Z,84.06
2018-07-06T05:15:06.843Z,82.88
2018-07-06T05:18:20.671Z,82.84
2018-07-06T05:21:34.387Z,82.77
2018-07-06T05:24:48.002Z,82.08
2018-07-06T05:28:01.746Z,82.66
2018-07-06T05:31:15.543Z,82.31
2018-07-06T05:34:29.155Z,81.74
2018-07-06T05:37:42.683Z,81.38
2018-07-06T05:40:56.235Z,81.49
2018-07-06T05:44:09.977Z,80.76
2018-07-06T05:47:23.614Z,81.11
2018-07-06T05:50:37.244Z,80.38
2018-07-06T05:53:51.228Z,80.61
2018-07-06T05:57:05.880Z,80.50
2018-07-06T06:00:19.833Z,79.48
2018-07-06T06:03:33.560Z,78.92
2018-07-06T06:06:47.227Z,78.80
2018-07-06T06:09:49.307Z,79.34
2018-07-06T06:12:51.560Z,78.17
2018-07-06T06:15:54.071Z,77.02
2018-07-06T06:18:56.597Z,76.37
2018-07-06T06:21:58.659Z,76.65
2018-07-06T06:25:00.805Z,76.15
2018-07-06T06:28:02.929Z,75.49
2018-07-06T06:31:04.955Z,76.02
2018-07-06T06:34:07.120Z,76.21
2018-07-06T06:37:09.211Z,75.50
2018-07-06T06:40:11.426Z,75.71
2018-07-06T06:43:13.489Z,74.57
2018-07-06T06:46:16.916Z,74.03
2018-07-06T06:49:19.138Z,73.40
2018-07-06T06:52:21.372Z,72.36
2018-07-06T06:55:23.425Z,72.25
2018-07-06T06:58:26.083Z,72.09
2018-07-06T07:01:28.354Z,71.38
2018-07-06T07:04:30.482Z,71.52
2018-07-06T07:07:32.847Z,71.36
2018-07-06T07:10:34.980Z,71.36
2018-07-06T07:13:37.138Z,70.83
2018-07-06T07:16:40.644Z,70.73
2018-07-06T07:19:43.170Z,70.28
2018-07-06T07:22:45.400Z,68.91
2018-07-06T07:25:47.552Z,68.10
2018-07-06T07:28:49.645Z,67.92
2018-07-06T07:31:51.763Z,67.44
2018-07-06T07:34:53.794Z,66.16
2018-07-06T07:37:55.788Z,66.48
2018-07-06T07:40:57.869Z,65.83
2018-07-06T07:44:00.283Z,65.55
2018-07-06T07:47:02.417Z,65.75
2018-07-06T07:50:04.432Z,65.19
2018-07-06T07:53:18.832Z,65.41
2018-07-06T07:56:21.223Z,66.16
2018-07-06T07:59:23.338Z,64.19
2018-07-06T08:02:25.443Z,62.96
2018-07-06T08:05:27.595Z,63.10
2018-07-06T08:08:29.816Z,63.27
2018-07-06T08:11:35.445Z,63.65
2018-07-06T08:14:35.360Z,62.51
2018-07-06T08:17:37.487Z,61.85
2018-07-06T08:20:39.620Z,61.78
2018-07-06T08:23:41.665Z,61.28
2018-07-06T08:26:43.780Z,60.89
2018-07-06T08:29:45.919Z,61.17
2018-07-06T08:32:47.936Z,61.07
2018-07-06T08:36:01.485Z,60.06
2018-07-06T08:39:04.613Z,61.79
2018-07-06T08:42:06.683Z,62.66
2018-07-06T08:45:09.303Z,62.67
2018-07-06T08:48:11.439Z,62.84
2018-07-06T08:51:13.492Z,62.33
2018-07-06T08:54:15.494Z,60.31
2018-07-06T08:57:18.081Z,58.45
2018-07-06T09:00:20.239Z,57.89
2018-07-06T09:03:22.229Z,57.50
2018-07-06T09:06:24.404Z,57.54
2018-07-06T09:09:26.718Z,56.20
2018-07-06T09:12:28.801Z,55.18
2018-07-06T09:15:30.897Z,53.51
2018-07-06T09:18:33.027Z,52.03
2018-07-06T09:21:36.836Z,51.78
2018-07-06T09:24:39.101Z,51.46
2018-07-06T09:27:41.193Z,50.79
2018-07-06T09:30:43.483Z,52.03
2018-07-06T09:33:45.342Z,52.06
2018-07-06T09:36:47.523Z,51.09
2018-07-06T09:39:50.231Z,50.58
2018-07-06T09:42:52.157Z,51.22
2018-07-06T09:45:54.336Z,50.81
2018-07-06T09:48:56.394Z,51.44
2018-07-06T09:52:00.580Z,51.63
2018-07-06T09:55:02.793Z,50.43
2018-07-06T09:58:06.200Z,50.13
2018-07-06T10:01:08.208Z,49.07
2018-07-06T10:04:10.342Z,48.61
2018-07-06T10:07:13.440Z,48.65
2018-07-06T10:10:15.617Z,48.05
2018-07-06T10:13:17.831Z,48.58
2018-07-06T10:16:20.298Z,46.65
2018-07-06T10:19:22.417Z,46.13
2018-07-06T10:22:24.493Z,46.37
2018-07-06T10:25:26.609Z,45.62
2018-07-06T10:30:50.516Z,45.92
2018-07-06T10:33:52.505Z,43.36
2018-07-06T10:36:54.602Z,42.61
2018-07-06T10:39:56.905Z,43.46
2018-07-06T10:42:58.847Z,42.60
2018-07-06T10:46:00.927Z,42.06
2018-07-06T10:49:03.410Z,41.37
2018-07-06T10:52:06.825Z,42.27
2018-07-06T10:55:08.842Z,42.91
2018-07-06T10:58:11.088Z,43.47
2018-07-06T11:01:13.201Z,43.66
2018-07-06T11:04:15.363Z,42.43
2018-07-06T11:07:17.418Z,42.43
2018-07-06T11:10:19.577Z,41.42
2018-07-06T11:13:21.592Z,41.38
2018-07-06T11:16:23.656Z,40.45
2018-07-06T11:19:25.679Z,39.32
2018-07-06T11:22:27.752Z,40.24
2018-07-06T11:25:29.850Z,39.51
2018-07-06T11:28:31.912Z,38.26
2018-07-06T11:31:35.468Z,38.54
2018-07-06T11:34:37.607Z,37.94
2018-07-06T11:37:41.679Z,38.80
2018-07-06T11:40:43.845Z,38.33
2018-07-06T11:43:45.850Z,38.15
2018-07-06T11:46:47.911Z,38.71
2018-07-06T11:49:50.123Z,37.52
2018-07-06T11:52:52.166Z,38.68
2018-07-06T11:55:54.370Z,38.03
2018-07-06T11:58:56.576Z,37.39
2018-07-06T12:01:58.764Z,37.82
2018-07-06T12:05:00.841Z,37.79
2018-07-06T12:08:02.817Z,37.16
2018-07-06T12:11:06.153Z,36.28
2018-07-06T12:14:08.322Z,34.72
2018-07-06T12:17:10.444Z,35.61
2018-07-06T12:20:12.518Z,36.03
2018-07-06T12:23:14.647Z,35.29
2018-07-06T12:26:16.681Z,34.43
2018-07-06T12:29:18.745Z,35.34
2018-07-06T12:32:20.943Z,35.29
2018-07-06T12:35:23.096Z,34.03
2018-07-06T12:38:25.137Z,33.87
2018-07-06T12:41:27.244Z,34.33
2018-07-06T12:44:29.287Z,34.14
2018-07-06T12:47:31.921Z,33.75
2018-07-06T12:50:34.031Z,34.68
2018-07-06T12:53:36.028Z,34.00
2018-07-06T12:56:38.902Z,33.63
2018-07-06T12:59:41.064Z,33.21
2018-07-06T13:02:44.451Z,33.95
2018-07-06T13:05:46.582Z,32.64
2018-07-06T13:08:48.660Z,32.58
2018-07-06T13:11:50.961Z,33.31
2018-07-06T13:14:53.197Z,33.02
2018-07-06T13:17:55.380Z,33.17
2018-07-06T13:20:57.534Z,33.92
2018-07-06T13:23:59.622Z,34.61
2018-07-06T13:27:01.723Z,33.62
2018-07-06T13:30:03.927Z,35.22
2018-07-06T13:33:05.970Z,35.06
2018-07-06T13:36:09.549Z,35.36
2018-07-06T13:39:12.914Z,35.63
2018-07-06T13:42:14.928Z,36.42
2018-07-06T13:45:17.118Z,37.50
2018-07-06T13:48:20.395Z,38.28
2018-07-06T13:51:22.483Z,38.66
2018-07-06T13:54:24.752Z,39.04
2018-07-06T14:00:28.367Z,38.91
2018-07-06T14:03:30.446Z,39.13
2018-07-06T14:06:32.546Z,39.17
2018-07-06T14:09:34.877Z,39.05
2018-07-06T14:12:37.049Z,38.29
2018-07-06T14:15:39.794Z,39.13
2018-07-06T14:18:41.919Z,37.89
2018-07-06T14:21:43.978Z,37.56
2018-07-06T14:24:46.147Z,37.76
2018-07-06T14:30:50.618Z,39.54
2018-07-06T14:33:53.782Z,39.94
2018-07-06T14:36:56.027Z,42.16
2018-07-06T14:39:58.165Z,44.30
2018-07-06T14:43:00.425Z,45.87
2018-07-06T14:46:02.571Z,49.03
2018-07-06T14:49:05.095Z,51.68
2018-07-06T14:52:07.312Z,54.56
2018-07-06T14:55:10.069Z,57.11
2018-07-06T14:58:12.270Z,56.32
2018-07-06T15:01:14.341Z,57.26
2018-07-06T15:04:16.740Z,57.67
2018-07-06T15:07:18.999Z,57.86
2018-07-06T15:10:21.068Z,58.82
2018-07-06T15:13:23.266Z,58.59
2018-07-06T15:16:25.620Z,56.47
2018-07-06T15:19:27.748Z,55.26
2018-07-06T15:22:29.804Z,54.01
2018-07-06T15:25:31.920Z,52.78
2018-07-06T15:28:34.008Z,50.97
2018-07-06T15:31:36.556Z,47.88
2018-07-06T15:34:39.853Z,47.11
2018-07-06T15:37:42.365Z,46.33
2018-07-06T15:40:44.419Z,45.15
2018-07-06T15:43:46.933Z,43.80
2018-07-06T15:46:49.429Z,43.54
2018-07-06T15:49:52.010Z,43.43
2018-07-06T15:52:54.501Z,45.30
2018-07-06T15:55:56.985Z,46.21
2018-07-06T15:58:59.541Z,45.99
2018-07-06T16:02:02.155Z,45.68
2018-07-06T16:05:04.846Z,45.50
2018-07-06T16:08:07.943Z,45.00
2018-07-06T16:11:10.096Z,44.14
2018-07-06T16:14:12.708Z,42.06
2018-07-06T16:17:15.159Z,40.31
2018-07-06T16:20:17.627Z,40.93
2018-07-06T16:23:19.624Z,42.60
2018-07-06T16:26:22.165Z,39.41
2018-07-06T16:29:24.703Z,40.87
2018-07-06T16:32:27.148Z,39.02
2018-07-06T16:35:29.700Z,37.32
2018-07-06T16:38:32.009Z,36.58
2018-07-06T16:41:34.380Z,33.36
2018-07-06T16:44:36.714Z,33.25
2018-07-06T16:47:39.019Z,31.99
2018-07-06T16:50:42.185Z,31.49
2018-07-06T16:53:44.387Z,31.44
2018-07-06T16:56:46.611Z,30.53
2018-07-06T16:59:49.043Z,30.83
2018-07-06T17:02:51.135Z,29.50
2018-07-06T17:05:53.559Z,29.24
2018-07-06T17:08:55.848Z,29.34
2018-07-06T17:11:58.043Z,29.20
2018-07-06T17:15:00.236Z,29.47
2018-07-06T17:18:03.340Z,28.77
2018-07-06T17:21:05.695Z,29.23
2018-07-06T17:24:07.900Z,29.73
2018-07-06T17:27:11.015Z,30.19
2018-07-06T17:30:13.143Z,31.07
2018-07-06T17:33:15.236Z,31.51
2018-07-06T17:36:17.279Z,31.92
2018-07-06T17:39:19.246Z,32.17
2018-07-06T17:42:21.399Z,31.94
2018-07-06T17:45:23.535Z,32.17
2018-07-06T17:48:25.582Z,32.29
2018-07-06T17:51:27.779Z,32.45
2018-07-06T17:54:29.928Z,32.61
2018-07-06T17:57:32.007Z,32.73
2018-07-06T18:00:34.435Z,32.73
2018-07-06T18:03:36.611Z,32.79
2018-07-06T18:06:38.676Z,33.30
2018-07-06T18:09:40.854Z,33.60
2018-07-06T18:12:42.982Z,34.05
2018-07-06T18:15:45.331Z,34.70
2018-07-06T18:18:47.602Z,35.15
2018-07-06T18:21:49.814Z,35.28
2018-07-06T18:24:51.795Z,35.47
2018-07-06T18:27:53.920Z,35.65
2018-07-06T18:30:56.071Z,35.33
2018-07-06T18:33:58.161Z,35.61
2018-07-06T18:37:02.219Z,35.54
2018-07-06T18:40:04.572Z,35.75
2018-07-06T18:43:06.770Z,35.83
2018-07-06T18:46:08.779Z,35.99
2018-07-06T18:49:10.815Z,36.70
2018-07-06T18:52:12.890Z,36.73
2018-07-06T18:55:15.111Z,37.12
2018-07-06T18:58:17.176Z,36.85
2018-07-06T19:01:19.263Z,37.07
2018-07-06T19:04:21.319Z,37.11
2018-07-06T19:07:23.488Z,37.34
2018-07-06T19:10:25.907Z,37.61
2018-07-06T19:13:28.028Z,37.94
2018-07-06T19:16:30.447Z,37.92
2018-07-06T19:19:33.808Z,37.89
2018-07-06T19:22:35.874Z,38.58
2018-07-06T19:25:38.085Z,38.48
2018-07-06T19:28:41.275Z,38.69
2018-07-06T19:31:43.317Z,38.91
2018-07-06T19:34:45.584Z,39.23
2018-07-06T19:37:47.839Z,39.03
2018-07-06T19:40:50.927Z,39.54
2018-07-06T19:43:53.158Z,39.72
2018-07-06T19:46:55.291Z,39.99
2018-07-06T19:49:57.395Z,40.47
2018-07-06T19:52:59.525Z,40.35
2018-07-06T19:56:01.764Z,40.71
2018-07-06T19:59:05.074Z,40.62
2018-07-06T20:02:07.161Z,40.76
2018-07-06T20:05:09.496Z,41.21
2018-07-06T20:08:11.588Z,41.48
2018-07-06T20:11:13.717Z,41.29
2018-07-06T20:14:15.735Z,42.16
2018-07-06T20:17:17.840Z,41.97
2018-07-06T20:20:19.895Z,41.72
2018-07-06T20:23:23.176Z,42.06
2018-07-06T20:26:25.306Z,42.35
2018-07-06T20:29:27.420Z,42.32
2018-07-06T20:32:29.580Z,42.63
2018-07-06T20:35:31.642Z,42.62
2018-07-06T20:38:34.944Z,43.06
2018-07-06T20:41:37.099Z,42.89
2018-07-06T20:44:39.190Z,43.94
2018-07-06T20:47:41.280Z,43.82
2018-07-06T20:50:43.494Z,44.24
2018-07-06T20:53:45.593Z,44.21
2018-07-06T20:56:47.624Z,44.56
2018-07-06T20:59:49.667Z,44.42
2018-07-06T21:02:51.819Z,44.74
2018-07-06T21:05:53.808Z,44.99
2018-07-06T21:08:55.933Z,45.27
2018-07-06T21:11:57.999Z,45.39
2018-07-06T21:15:00.150Z,45.73
2018-07-06T21:18:02.233Z,46.08
2018-07-06T21:21:04.465Z,46.35
2018-07-06T21:24:06.599Z,46.47
2018-07-06T21:27:08.660Z,46.51
2018-07-06T21:30:10.809Z,46.89
2018-07-06T21:33:12.792Z,47.12
2018-07-06T21:36:14.793Z,47.40
2018-07-06T21:39:16.956Z,47.69
2018-07-06T21:42:19.019Z,48.20
2018-07-06T21:45:21.299Z,48.60
2018-07-06T21:48:23.484Z,48.71
2018-07-06T21:51:25.674Z,49.19
2018-07-06T21:54:27.697Z,49.71
2018-07-06T21:57:29.860Z,49.93
2018-07-06T22:00:35.467Z,50.00
2018-07-06T22:03:37.475Z,49.81
2018-07-06T22:06:39.441Z,49.69
2018-07-06T22:09:41.585Z,49.65
2018-07-06T22:12:43.688Z,49.69
2018-07-06T22:15:46.633Z,49.72
2018-07-06T22:18:48.907Z,49.76
2018-07-06T22:21:50.909Z,49.89
2018-07-06T22:24:52.980Z,50.11
2018-07-06T22:27:55.052Z,50.24
2018-07-06T22:30:57.226Z,50.32
2018-07-06T22:33:59.290Z,50.38
2018-07-06T22:37:03.568Z,50.33
2018-07-06T22:40:05.595Z,50.37
2018-07-06T22:43:07.643Z,50.40
2018-07-06T22:46:09.745Z,50.57
2018-07-06T22:49:11.908Z,50.81
2018-07-06T22:52:13.959Z,50.58
2018-07-06T22:55:16.032Z,51.31
2018-07-06T22:58:19.131Z,51.61
2018-07-06T23:01:21.219Z,51.79
2018-07-06T23:04:23.344Z,51.91
2018-07-06T23:07:25.516Z,52.06
2018-07-06T23:10:27.650Z,52.45
2018-07-06T23:13:29.843Z,52.71
2018-07-06T23:16:31.948Z,53.03
2018-07-06T23:19:35.260Z,53.29
2018-07-06T23:23:01.016Z,53.34
2018-07-06T23:26:03.005Z,53.39
2018-07-06T23:29:05.164Z,53.52
2018-07-06T23:32:07.281Z,53.78
2018-07-06T23:35:09.937Z,54.09
2018-07-06T23:38:12.077Z,54.49
2018-07-06T23:41:15.021Z,54.54
2018-07-06T23:44:17.046Z,54.63
2018-07-06T23:47:19.049Z,54.81
2018-07-06T23:50:21.698Z,54.84
2018-07-06T23:53:24.035Z,54.85
2018-07-06T23:56:26.042Z,54.87
2018-07-06T23:59:28.121Z,55.19
